Time;durP1;ratioP1;P1;durP2;ratioP2;P2;SDS_P1;SDS_P2;PMS_P1;PMS_P2;Temp;Humidity;BMP_temperature;BMP_pressure;BME280_temperature;BME280_humidity;BME280_pressure;Samples;Min_cycle;Max_cycle;Signal;HPM_P1;HPM_P2
2023/09/01 00:00:12;;;;;;;3.95;1.25;;;19.90;91.00;;;;;;5097287;28;20106;-79
2023/09/01 00:02:39;;;;;;;5.25;1.42;;;19.90;91.00;;;;;;5097323;28;20032;-79
2023/09/01 00:05:05;;;;;;;3.35;1.23;;;19.90;91.10;;;;;;5096231;28;20043;-78
2023/09/01 00:07:31;;;;;;;3.22;1.00;;;19.90;91.00;;;;;;5097470;28;20039;-81
2023/09/01 00:09:57;;;;;;;2.40;0.80;;;19.90;91.10;;;;;;5096810;28;20032;-80
2023/09/01 00:12:22;;;;;;;4.38;1.42;;;19.90;91.10;;;;;;5096538;28;20373;-80
2023/09/01 00:14:48;;;;;;;3.58;1.63;;;19.90;91.20;;;;;;5097005;28;20028;-78
2023/09/01 00:17:14;;;;;;;5.03;1.58;;;19.90;91.20;;;;;;5097315;28;20030;-78
2023/09/01 00:19:40;;;;;;;7.07;2.47;;;19.90;91.10;;;;;;5096984;28;20078;-79
2023/09/01 00:22:06;;;;;;;9.10;3.05;;;19.90;91.20;;;;;;5095596;28;20131;-78
2023/09/01 00:24:32;;;;;;;4.75;1.70;;;19.80;91.20;;;;;;5096803;28;20470;-79
2023/09/01 00:27:01;;;;;;;4.18;1.30;;;19.70;91.30;;;;;;5096764;28;20115;-79
2023/09/01 00:29:27;;;;;;;7.25;1.90;;;19.60;91.50;;;;;;5096487;28;20028;-78
2023/09/01 00:31:53;;;;;;;3.58;1.40;;;19.70;91.60;;;;;;5096959;28;20043;-79
2023/09/01 00:34:18;;;;;;;4.18;1.33;;;19.70;91.60;;;;;;5095318;28;20045;-78
2023/09/01 00:36:44;;;;;;;4.97;1.52;;;19.60;91.70;;;;;;5096654;28;20027;-79
2023/09/01 00:39:10;;;;;;;3.97;1.75;;;19.60;91.70;;;;;;5096304;28;20121;-79
2023/09/01 00:41:36;;;;;;;3.00;1.27;;;19.60;91.80;;;;;;5097041;28;20441;-79
2023/09/01 00:44:03;;;;;;;2.78;1.55;;;19.60;91.80;;;;;;5096989;28;20032;-79
2023/09/01 00:46:31;;;;;;;5.13;1.15;;;19.60;91.80;;;;;;5096436;28;20028;-79
2023/09/01 00:48:57;;;;;;;3.13;1.05;;;19.70;91.90;;;;;;5093937;28;20035;-79
2023/09/01 00:51:24;;;;;;;6.05;1.77;;;19.70;91.80;;;;;;5096935;28;20067;-80
2023/09/01 00:53:51;;;;;;;3.65;1.73;;;19.70;91.80;;;;;;5096230;28;20035;-79
2023/09/01 00:56:18;;;;;;;5.53;1.88;;;19.70;91.70;;;;;;5096490;28;20453;-79
2023/09/01 00:58:44;;;;;;;5.68;1.73;;;19.70;91.80;;;;;;5094852;28;20020;-78
2023/09/01 01:01:10;;;;;;;4.18;1.25;;;19.70;91.80;;;;;;5096131;28;20035;-79
2023/09/01 01:03:36;;;;;;;3.35;1.13;;;19.70;91.80;;;;;;5096592;28;20444;-79
2023/09/01 01:06:07;;;;;;;4.10;1.30;;;19.60;91.90;;;;;;5096855;28;20441;-80
2023/09/01 01:08:51;;;;;;;3.88;1.60;;;19.60;91.90;;;;;;5096086;28;20042;-81
2023/09/01 01:11:31;;;;;;;3.20;1.33;;;19.60;91.90;;;;;;5094961;28;20081;-80
2023/09/01 01:14:02;;;;;;;5.05;1.60;;;19.60;91.90;;;;;;5095946;28;20024;-80
2023/09/01 01:16:29;;;;;;;5.68;2.13;;;19.60;92.00;;;;;;5095916;28;20453;-79
2023/09/01 01:18:59;;;;;;;5.80;1.95;;;19.50;92.00;;;;;;5095769;28;20052;-78
2023/09/01 01:21:26;;;;;;;4.55;1.70;;;19.50;92.00;;;;;;5095753;28;20107;-78
2023/09/01 01:23:53;;;;;;;5.78;1.67;;;19.50;92.00;;;;;;5095618;28;20032;-78
2023/09/01 01:26:19;;;;;;;4.18;1.73;;;19.50;92.10;;;;;;5094773;28;20355;-78
2023/09/01 01:28:45;;;;;;;3.53;1.55;;;19.50;92.10;;;;;;5095642;28;20024;-78
2023/09/01 01:31:12;;;;;;;3.60;1.65;;;19.50;92.10;;;;;;5095722;28;20019;-78
2023/09/01 01:34:03;;;;;;;3.03;1.60;;;19.50;92.00;;;;;;5095830;28;20039;-77
2023/09/01 01:36:49;;;;;;;4.75;1.80;;;19.50;92.00;;;;;;5094751;28;20035;-77
2023/09/01 01:39:23;;;;;;;4.80;1.58;;;19.50;92.10;;;;;;5095097;28;20059;-79
2023/09/01 01:41:52;;;;;;;4.32;1.60;;;19.50;92.10;;;;;;5094190;28;20031;-79
2023/09/01 01:44:22;;;;;;;3.60;1.40;;;19.50;92.10;;;;;;5095263;28;20102;-78
2023/09/01 01:46:49;;;;;;;7.07;2.00;;;19.50;92.10;;;;;;5093962;28;20073;-78
2023/09/01 01:49:15;;;;;;;3.38;1.42;;;19.50;92.10;;;;;;5095257;28;20028;-79
2023/09/01 01:51:41;;;;;;;2.85;1.40;;;19.50;92.20;;;;;;5095125;28;20035;-78
2023/09/01 01:54:07;;;;;;;3.45;1.60;;;19.50;92.20;;;;;;5095370;28;20024;-77
2023/09/01 01:56:33;;;;;;;4.32;1.60;;;19.50;92.20;;;;;;5095038;28;20024;-78
2023/09/01 01:58:59;;;;;;;4.25;1.50;;;19.50;92.20;;;;;;5095243;28;20111;-78
2023/09/01 02:01:25;;;;;;;6.45;1.75;;;19.50;92.20;;;;;;5093877;28;20560;-79
2023/09/01 02:03:52;;;;;;;4.55;2.10;;;19.50;92.30;;;;;;5094879;28;20119;-79
2023/09/01 02:06:17;;;;;;;6.63;2.00;;;19.50;92.30;;;;;;5094933;28;20028;-79
2023/09/01 02:08:43;;;;;;;4.32;1.58;;;19.50;92.40;;;;;;5094553;28;20169;-78
2023/09/01 02:11:08;;;;;;;3.13;1.23;;;19.50;92.40;;;;;;5093252;28;20035;-78
2023/09/01 02:13:34;;;;;;;3.75;1.80;;;19.50;92.40;;;;;;5094820;28;20031;-78
2023/09/01 02:16:00;;;;;;;4.78;1.80;;;19.50;92.30;;;;;;5094585;28;20136;-78
2023/09/01 02:18:27;;;;;;;3.78;1.38;;;19.50;92.40;;;;;;5094645;28;20050;-78
2023/09/01 02:20:52;;;;;;;3.83;1.38;;;19.40;92.40;;;;;;5094238;28;20499;-78
2023/09/01 02:23:18;;;;;;;3.25;1.40;;;19.40;92.40;;;;;;5094531;28;20052;-78
2023/09/01 02:25:47;;;;;;;6.95;1.70;;;19.50;92.40;;;;;;5093246;28;20103;-78
2023/09/01 02:28:12;;;;;;;6.07;1.98;;;19.50;92.50;;;;;;5094746;28;20028;-77
2023/09/01 02:30:38;;;;;;;4.03;1.45;;;19.50;92.40;;;;;;5094883;28;20031;-77
2023/09/01 02:33:05;;;;;;;5.57;2.05;;;19.50;92.40;;;;;;5093870;28;20036;-78
2023/09/01 02:35:30;;;;;;;2.92;1.42;;;19.50;92.40;;;;;;5094675;28;20103;-78
2023/09/01 02:37:56;;;;;;;4.30;1.70;;;19.50;92.40;;;;;;5094890;28;20119;-78
2023/09/01 02:40:24;;;;;;;7.78;3.53;;;19.50;92.40;;;;;;5093027;28;20056;-79
2023/09/01 02:42:51;;;;;;;4.85;2.20;;;19.40;92.20;;;;;;5092987;28;20495;-79
2023/09/01 02:45:17;;;;;;;5.53;2.17;;;19.30;92.40;;;;;;5094061;28;20088;-79
2023/09/01 02:47:43;;;;;;;7.47;3.30;;;19.20;92.50;;;;;;5094153;28;20035;-78
2023/09/01 02:50:09;;;;;;;6.82;2.50;;;19.10;92.50;;;;;;5094103;28;20032;-79
2023/09/01 02:52:35;;;;;;;9.20;3.47;;;19.00;92.70;;;;;;5094267;28;20036;-78
2023/09/01 02:55:00;;;;;;;6.43;2.90;;;18.90;92.80;;;;;;5092638;28;20384;-79
2023/09/01 02:57:26;;;;;;;4.10;2.05;;;18.90;92.80;;;;;;5094013;28;20064;-79
2023/09/01 02:59:53;;;;;;;5.10;2.25;;;18.90;92.80;;;;;;5094256;28;20372;-78
2023/09/01 03:02:19;;;;;;;4.88;1.83;;;19.00;93.00;;;;;;5093968;28;20089;-79
2023/09/01 03:04:47;;;;;;;3.92;1.88;;;19.00;92.90;;;;;;5092486;28;20469;-78
2023/09/01 03:07:13;;;;;;;5.70;2.30;;;18.90;93.00;;;;;;5093893;28;20039;-78
2023/09/01 03:09:38;;;;;;;2.55;1.55;;;19.00;93.00;;;;;;5093664;28;20028;-78
2023/09/01 03:12:04;;;;;;;4.60;2.45;;;18.90;93.00;;;;;;5092104;28;20465;-78
2023/09/01 03:14:30;;;;;;;6.25;2.72;;;18.90;93.10;;;;;;5093822;28;20037;-78
2023/09/01 03:16:56;;;;;;;6.72;2.72;;;18.90;93.10;;;;;;5094015;28;20396;-79
2023/09/01 03:19:22;;;;;;;7.55;3.30;;;18.90;93.10;;;;;;5093849;28;20030;-79
2023/09/01 03:21:47;;;;;;;6.85;2.67;;;18.90;93.00;;;;;;5093748;28;20032;-79
2023/09/01 03:24:13;;;;;;;4.38;1.92;;;18.80;92.90;;;;;;5093755;28;20437;-79
2023/09/01 03:26:38;;;;;;;8.82;3.10;;;18.80;93.10;;;;;;5093768;28;20039;-79
2023/09/01 03:29:04;;;;;;;3.67;1.85;;;18.70;93.10;;;;;;5093742;28;20035;-77
2023/09/01 03:31:31;;;;;;;5.47;2.58;;;18.70;93.20;;;;;;5093580;28;20040;-79
2023/09/01 03:33:57;;;;;;;4.90;1.90;;;18.70;93.30;;;;;;5092105;28;20482;-78
2023/09/01 03:36:23;;;;;;;6.97;2.53;;;18.70;93.50;;;;;;5092358;28;20028;-79
2023/09/01 03:38:48;;;;;;;4.88;2.25;;;18.70;93.50;;;;;;5093067;28;20511;-78
2023/09/01 03:41:14;;;;;;;5.88;2.55;;;18.60;93.40;;;;;;5094150;28;20148;-79
2023/09/01 03:43:40;;;;;;;6.88;2.75;;;18.60;93.60;;;;;;5093550;28;20032;-78
2023/09/01 03:46:05;;;;;;;6.63;3.60;;;18.50;93.70;;;;;;5093809;28;20348;-77
2023/09/01 03:48:32;;;;;;;5.18;3.03;;;18.50;93.70;;;;;;5091937;28;20422;-78
2023/09/01 03:51:11;;;;;;;7.07;3.42;;;18.50;93.60;;;;;;5075293;28;20035;-78
2023/09/01 03:53:37;;;;;;;4.78;3.13;;;18.50;93.60;;;;;;5093362;28;20040;-78
2023/09/01 03:56:16;;;;;;;6.22;2.75;;;18.40;93.60;;;;;;5092358;28;20031;-78
2023/09/01 03:58:42;;;;;;;7.35;3.35;;;18.30;93.80;;;;;;5093752;28;20460;-78
2023/09/01 04:01:09;;;;;;;6.75;3.28;;;18.20;94.00;;;;;;5093660;28;20492;-79
2023/09/01 04:03:35;;;;;;;9.52;4.35;;;18.10;94.30;;;;;;5093375;28;20035;-78
2023/09/01 04:06:01;;;;;;;9.15;3.08;;;18.00;94.50;;;;;;5092270;28;20039;-79
2023/09/01 04:08:27;;;;;;;4.65;2.25;;;17.80;94.70;;;;;;5093305;28;20028;-79
2023/09/01 04:10:52;;;;;;;4.47;2.40;;;17.80;94.90;;;;;;5093271;28;20337;-78
2023/09/01 04:13:18;;;;;;;4.20;2.53;;;17.90;95.00;;;;;;5093558;28;20039;-79
2023/09/01 04:15:43;;;;;;;5.90;3.03;;;17.90;95.00;;;;;;5093490;28;20035;-79
2023/09/01 04:18:09;;;;;;;8.27;2.60;;;18.00;94.80;;;;;;5093538;28;20028;-77
2023/09/01 04:20:35;;;;;;;6.90;3.05;;;18.00;94.80;;;;;;5093323;28;20024;-77
2023/09/01 04:23:00;;;;;;;5.13;2.63;;;18.00;94.80;;;;;;5093236;28;20403;-79
2023/09/01 04:25:26;;;;;;;3.60;1.63;;;18.00;94.80;;;;;;5096596;28;20388;-78
2023/09/01 04:27:51;;;;;;;6.65;3.92;;;18.10;95.00;;;;;;5096498;28;20033;-78
2023/09/01 04:30:17;;;;;;;8.55;3.13;;;18.10;94.90;;;;;;5096461;28;20024;-78
2023/09/01 04:32:44;;;;;;;6.45;2.47;;;18.10;94.90;;;;;;5097053;28;20051;-78
2023/09/01 04:35:10;;;;;;;5.57;2.58;;;18.10;95.00;;;;;;5096950;28;20350;-78
2023/09/01 04:37:36;;;;;;;3.55;1.95;;;18.10;95.10;;;;;;5096603;28;20036;-78
2023/09/01 04:40:06;;;;;;;7.10;3.42;;;18.20;95.10;;;;;;5096671;28;20354;-78
2023/09/01 04:42:32;;;;;;;6.47;3.17;;;18.20;95.00;;;;;;5096244;28;20541;-78
2023/09/01 04:44:58;;;;;;;5.53;2.97;;;18.20;94.80;;;;;;5096398;28;20066;-78
2023/09/01 04:47:24;;;;;;;6.40;3.05;;;18.10;94.90;;;;;;5095096;28;20453;-78
2023/09/01 04:49:50;;;;;;;6.07;2.78;;;18.10;95.00;;;;;;5096648;28;20032;-78
2023/09/01 04:52:16;;;;;;;3.63;1.48;;;18.10;95.10;;;;;;5096256;28;20039;-78
2023/09/01 04:54:41;;;;;;;4.97;1.80;;;18.10;95.20;;;;;;5096174;28;20032;-79
2023/09/01 04:57:07;;;;;;;9.13;4.55;;;18.20;95.20;;;;;;5096563;28;20512;-78
2023/09/01 04:59:32;;;;;;;6.45;3.47;;;18.20;95.10;;;;;;5096005;28;20036;-78
2023/09/01 05:01:59;;;;;;;10.02;4.82;;;18.10;95.10;;;;;;5096129;28;20384;-78
2023/09/01 05:04:25;;;;;;;7.75;3.60;;;18.00;95.20;;;;;;5095725;28;20042;-78
2023/09/01 05:06:51;;;;;;;7.68;3.90;;;17.90;95.30;;;;;;5096021;28;20040;-78
2023/09/01 05:09:17;;;;;;;5.05;2.50;;;18.00;95.40;;;;;;5095149;28;20031;-78
2023/09/01 05:11:42;;;;;;;7.78;3.97;;;18.00;95.40;;;;;;5095254;28;20032;-78
2023/09/01 05:14:08;;;;;;;6.95;3.90;;;18.00;95.40;;;;;;5096126;28;20445;-78
2023/09/01 05:16:34;;;;;;;8.65;4.38;;;18.00;95.40;;;;;;5077663;28;20055;-78
2023/09/01 05:18:59;;;;;;;6.53;4.07;;;18.00;95.50;;;;;;5094860;28;20391;-78
2023/09/01 05:21:25;;;;;;;8.65;4.80;;;18.00;95.50;;;;;;5096169;28;20027;-78
2023/09/01 05:23:51;;;;;;;9.95;3.88;;;17.90;95.50;;;;;;5095846;28;20074;-76
2023/09/01 05:26:16;;;;;;;9.30;3.40;;;17.90;95.70;;;;;;5095349;28;20024;-80
2023/09/01 05:28:42;;;;;;;6.88;3.67;;;17.90;95.80;;;;;;5093913;28;20055;-80
2023/09/01 05:31:08;;;;;;;7.28;4.85;;;18.00;96.00;;;;;;5094051;28;20059;-79
2023/09/01 05:33:33;;;;;;;6.63;2.95;;;18.10;96.10;;;;;;5095983;28;20028;-80
2023/09/01 05:35:59;;;;;;;5.28;1.70;;;18.10;96.10;;;;;;5095103;28;20028;-80
2023/09/01 05:38:25;;;;;;;9.68;5.35;;;18.20;96.20;;;;;;5077335;28;20051;-80
2023/09/01 05:41:01;;;;;;;6.28;3.63;;;18.20;96.00;;;;;;5093943;28;20373;-80
2023/09/01 05:43:28;;;;;;;8.98;4.65;;;18.20;96.00;;;;;;5095356;28;20444;-80
2023/09/01 05:45:54;;;;;;;6.82;3.50;;;18.20;95.80;;;;;;5094026;28;20068;-80
2023/09/01 05:48:20;;;;;;;7.78;3.35;;;18.10;95.90;;;;;;5095292;28;20032;-80
2023/09/01 05:50:45;;;;;;;10.98;5.18;;;18.10;96.00;;;;;;5093873;28;20051;-79
2023/09/01 05:53:11;;;;;;;10.02;4.03;;;18.10;96.00;;;;;;5095542;28;20373;-79
2023/09/01 05:55:37;;;;;;;4.93;2.50;;;18.00;96.00;;;;;;5095296;28;20051;-79
2023/09/01 05:58:03;;;;;;;6.93;3.70;;;18.00;96.20;;;;;;5093888;28;20132;-80
2023/09/01 06:00:29;;;;;;;8.35;4.53;;;18.10;96.20;;;;;;5094732;28;20032;-79
2023/09/01 06:02:58;;;;;;;9.20;5.07;;;18.10;96.10;;;;;;5094672;28;20031;-77
2023/09/01 06:05:24;;;;;;;12.07;6.20;;;18.10;96.10;;;;;;5094215;28;20109;-78
2023/09/01 06:07:50;;;;;;;10.43;5.28;;;18.00;96.00;;;;;;5095118;28;20067;-80
2023/09/01 06:10:15;;;;;;;10.05;4.03;;;17.90;96.20;;;;;;5093492;28;20061;-80
2023/09/01 06:12:44;;;;;;;8.77;5.25;;;17.80;96.30;;;;;;5094474;28;20047;-80
2023/09/01 06:15:10;;;;;;;10.82;4.93;;;17.80;96.30;;;;;;5095069;28;20039;-75
2023/09/01 06:17:37;;;;;;;8.70;5.10;;;17.90;96.40;;;;;;5094599;28;20036;-82
2023/09/01 06:20:06;;;;;;;11.23;5.63;;;18.00;96.30;;;;;;5094589;28;20028;-82
2023/09/01 06:22:33;;;;;;;12.93;5.68;;;17.90;96.40;;;;;;5077298;28;20490;-80
2023/09/01 06:24:58;;;;;;;10.38;6.03;;;17.80;96.50;;;;;;5094345;28;20024;-80
2023/09/01 06:27:24;;;;;;;8.80;4.50;;;17.50;96.70;;;;;;5094525;28;20100;-77
2023/09/01 06:29:50;;;;;;;8.32;3.90;;;17.60;97.00;;;;;;5093650;28;20032;-77
2023/09/01 06:32:15;;;;;;;9.77;5.63;;;17.70;97.10;;;;;;5094019;28;20178;-79
2023/09/01 06:34:42;;;;;;;7.47;4.15;;;17.80;97.10;;;;;;5094336;28;20024;-77
2023/09/01 06:37:07;;;;;;;16.10;5.93;;;17.70;97.10;;;;;;5094224;28;20058;-77
2023/09/01 06:39:33;;;;;;;8.55;5.05;;;17.80;97.20;;;;;;5093684;28;20140;-80
2023/09/01 06:41:59;;;;;;;10.73;5.30;;;17.90;97.20;;;;;;5094308;28;20032;-81
2023/09/01 06:44:25;;;;;;;8.05;3.60;;;17.90;96.90;;;;;;5093412;28;20111;-81
2023/09/01 06:46:50;;;;;;;5.10;3.22;;;17.90;96.90;;;;;;5093531;28;20050;-81
2023/09/01 06:49:16;;;;;;;9.18;4.32;;;18.00;97.10;;;;;;5092885;28;20028;-75
2023/09/01 06:51:42;;;;;;;10.40;5.65;;;18.10;97.20;;;;;;5093903;28;20432;-77
2023/09/01 06:54:08;;;;;;;9.98;3.88;;;18.10;96.90;;;;;;5093627;28;20460;-77
2023/09/01 06:56:34;;;;;;;9.75;3.75;;;18.10;96.80;;;;;;5093861;28;20063;-77
2023/09/01 06:58:59;;;;;;;9.57;4.13;;;18.20;97.00;;;;;;5093370;28;20060;-76
2023/09/01 07:01:27;;;;;;;7.13;2.65;;;18.20;97.10;;;;;;5093437;28;20039;-76
2023/09/01 07:03:54;;;;;;;6.30;3.80;;;18.30;97.20;;;;;;5094087;28;20054;-76
2023/09/01 07:06:20;;;;;;;10.75;4.13;;;18.40;97.20;;;;;;5094172;28;20043;-79
2023/09/01 07:08:45;;;;;;;6.65;3.58;;;18.50;96.90;;;;;;5093789;28;20373;-77
2023/09/01 07:11:14;;;;;;;8.40;3.30;;;18.50;97.00;;;;;;5093683;28;20040;-78
2023/09/01 07:13:43;;;;;;;5.70;2.95;;;18.50;97.00;;;;;;5093856;28;20457;-78
2023/09/01 07:16:09;;;;;;;6.18;3.00;;;18.60;97.10;;;;;;5093638;28;20162;-78
2023/09/01 07:18:34;;;;;;;7.00;3.83;;;18.60;96.90;;;;;;5093940;28;20106;-78
2023/09/01 07:21:00;;;;;;;6.93;2.88;;;18.70;96.90;;;;;;5092322;28;20040;-78
2023/09/01 07:23:27;;;;;;;7.70;2.42;;;18.80;96.90;;;;;;5093708;28;20099;-78
2023/09/01 07:25:53;;;;;;;6.00;3.13;;;18.90;97.00;;;;;;5093515;28;20451;-77
2023/09/01 07:31:47;;;;;;;6.40;2.80;;;19.00;96.80;;;;;;5093221;28;20471;-80
2023/09/01 07:34:12;;;;;;;4.60;2.40;;;19.20;96.70;;;;;;5093948;28;20030;-78
2023/09/01 07:36:38;;;;;;;6.53;3.00;;;19.20;96.60;;;;;;5092575;28;20036;-78
2023/09/01 07:39:04;;;;;;;10.52;4.53;;;19.20;96.60;;;;;;5093057;28;20020;-76
2023/09/01 07:41:29;;;;;;;8.35;3.95;;;19.10;96.40;;;;;;5093456;28;20470;-78
2023/09/01 07:43:55;;;;;;;8.15;3.50;;;19.10;96.20;;;;;;5093785;28;20025;-81
2023/09/01 07:46:21;;;;;;;7.63;4.28;;;19.20;96.20;;;;;;5093381;28;20028;-81
2023/09/01 07:48:46;;;;;;;9.10;3.85;;;19.10;96.00;;;;;;5092132;28;20569;-80
2023/09/01 07:51:12;;;;;;;6.80;2.70;;;19.10;96.10;;;;;;5092107;28;20028;-81
2023/09/01 07:53:38;;;;;;;3.10;1.75;;;19.10;96.30;;;;;;5092477;28;20028;-81
2023/09/01 07:56:04;;;;;;;5.72;3.10;;;19.20;96.50;;;;;;5091769;28;20036;-77
2023/09/01 07:58:30;;;;;;;6.22;3.47;;;19.20;96.40;;;;;;5095202;28;20051;-78
2023/09/01 08:00:56;;;;;;;9.18;4.78;;;19.20;96.40;;;;;;5097000;28;20529;-78
2023/09/01 08:03:22;;;;;;;8.25;3.70;;;19.10;96.20;;;;;;5095989;28;20036;-78
2023/09/01 08:05:47;;;;;;;6.95;3.92;;;18.90;96.40;;;;;;5097447;28;20516;-78
2023/09/01 08:08:13;;;;;;;8.05;3.67;;;19.00;96.50;;;;;;5097121;28;20062;-78
2023/09/01 08:10:40;;;;;;;7.35;4.10;;;18.90;96.50;;;;;;5097082;28;20055;-78
2023/09/01 08:13:05;;;;;;;8.02;5.18;;;18.90;96.70;;;;;;5097275;28;20032;-79
2023/09/01 08:15:32;;;;;;;6.57;3.13;;;18.80;96.90;;;;;;5097001;28;20039;-80
2023/09/01 08:17:58;;;;;;;6.75;4.18;;;18.80;97.10;;;;;;5096879;28;20071;-80
2023/09/01 08:20:24;;;;;;;13.48;5.13;;;18.80;97.10;;;;;;5096989;28;20043;-78
2023/09/01 08:22:50;;;;;;;9.88;4.82;;;18.90;97.20;;;;;;5096862;28;20032;-84
2023/09/01 08:25:15;;;;;;;12.00;5.43;;;18.80;97.40;;;;;;5098014;28;20030;-79
2023/09/01 08:27:41;;;;;;;11.35;6.25;;;18.70;97.50;;;;;;5096495;28;20373;-79
2023/09/01 08:30:07;;;;;;;6.85;5.30;;;18.60;97.70;;;;;;5096124;28;20028;-82
2023/09/01 08:32:33;;;;;;;7.97;4.55;;;18.60;98.00;;;;;;5095677;28;20036;-78
2023/09/01 08:35:03;;;;;;;10.00;5.30;;;18.50;98.20;;;;;;5095586;28;20036;-82
2023/09/01 08:37:28;;;;;;;8.65;4.20;;;18.30;98.60;;;;;;5095666;28;20024;-82
2023/09/01 08:39:54;;;;;;;10.90;5.55;;;18.20;98.90;;;;;;5095199;28;20132;-81
2023/09/01 08:42:21;;;;;;;19.17;6.38;;;18.30;98.90;;;;;;5096741;28;20047;-83
2023/09/01 08:44:48;;;;;;;10.82;5.53;;;18.40;98.80;;;;;;5096365;28;20464;-81
2023/09/01 08:47:20;;;;;;;14.68;4.35;;;18.30;98.80;;;;;;5096524;28;20040;-82
2023/09/01 08:49:50;;;;;;;9.68;4.53;;;18.40;98.90;;;;;;5096720;28;20028;-82
2023/09/01 08:52:18;;;;;;;6.10;3.08;;;18.50;98.90;;;;;;5095670;28;20040;-79
2023/09/01 08:54:48;;;;;;;8.13;4.10;;;18.60;98.80;;;;;;5096035;28;20028;-81
2023/09/01 08:57:13;;;;;;;9.10;4.68;;;18.70;98.70;;;;;;5094873;28;20024;-81
2023/09/01 08:59:39;;;;;;;5.60;2.45;;;18.80;98.70;;;;;;5094748;28;20028;-82
2023/09/01 09:02:07;;;;;;;8.85;4.65;;;18.80;98.60;;;;;;5078701;28;20036;-81
2023/09/01 09:04:36;;;;;;;9.52;5.10;;;18.90;98.40;;;;;;5094133;28;20035;-80
2023/09/01 09:07:16;;;;;;;8.90;5.80;;;18.90;98.20;;;;;;5077979;28;20039;-82
2023/09/01 09:09:56;;;;;;;8.45;4.60;;;18.90;98.00;;;;;;5094411;28;20465;-80
2023/09/01 09:12:23;;;;;;;4.70;3.10;;;19.00;98.10;;;;;;5094935;28;20589;-80
2023/09/01 09:14:52;;;;;;;11.38;4.45;;;19.00;98.10;;;;;;5094556;28;20070;-82
2023/09/01 09:17:44;;;;;;;8.48;5.28;;;18.90;98.10;;;;;;5095856;28;20024;-82
2023/09/01 09:20:10;;;;;;;11.73;6.00;;;18.90;98.20;;;;;;5095175;28;20448;-84
2023/09/01 09:22:56;;;;;;;9.38;5.18;;;18.90;98.20;;;;;;5077978;28;20533;-82
2023/09/01 09:25:35;;;;;;;11.00;5.93;;;18.80;98.50;;;;;;5095731;28;20028;-81
2023/09/01 09:28:12;;;;;;;6.50;4.35;;;18.70;98.60;;;;;;5094518;28;20147;-82
2023/09/01 09:30:51;;;;;;;9.48;4.30;;;18.70;98.60;;;;;;5094899;28;20409;-81
2023/09/01 09:33:26;;;;;;;11.10;3.75;;;18.70;98.60;;;;;;5095553;28;20386;-79
2023/09/01 09:35:51;;;;;;;11.35;4.97;;;18.80;98.60;;;;;;5095534;28;20061;-81
2023/09/01 09:38:17;;;;;;;10.82;5.53;;;18.90;98.60;;;;;;5095624;28;20090;-81
2023/09/01 09:40:56;;;;;;;11.68;5.38;;;18.90;98.60;;;;;;5095297;28;20488;-81
2023/09/01 09:43:22;;;;;;;9.95;3.97;;;18.90;98.50;;;;;;5094430;28;20072;-79
2023/09/01 09:45:48;;;;;;;6.05;3.53;;;19.00;98.50;;;;;;5093998;28;20028;-81
2023/09/01 09:48:14;;;;;;;10.88;5.60;;;19.00;98.40;;;;;;5095273;28;20032;-81
2023/09/01 09:50:42;;;;;;;9.90;4.82;;;19.00;98.50;;;;;;5094429;28;20032;-83
2023/09/01 09:53:08;;;;;;;7.18;3.47;;;19.00;98.50;;;;;;5095535;28;20085;-83
2023/09/01 09:55:46;;;;;;;12.27;6.22;;;19.00;98.70;;;;;;5093860;28;20508;-81
2023/09/01 09:58:12;;;;;;;6.78;4.13;;;19.00;98.70;;;;;;5095737;28;20103;-83
2023/09/01 10:00:58;;;;;;;8.15;4.07;;;18.90;98.80;;;;;;5093861;28;20050;-82
2023/09/01 10:03:29;;;;;;;7.13;3.75;;;18.90;98.90;;;;;;5095278;28;20035;-82
2023/09/01 10:05:55;;;;;;;8.43;5.00;;;18.90;98.90;;;;;;5093261;28;20055;-81
2023/09/01 10:08:23;;;;;;;6.78;3.53;;;18.90;98.90;;;;;;5077033;28;20105;-81
2023/09/01 10:10:49;;;;;;;10.45;3.78;;;18.90;98.90;;;;;;5093362;28;20232;-81
2023/09/01 10:13:15;;;;;;;6.43;4.20;;;18.90;99.00;;;;;;5094222;28;20085;-79
2023/09/01 10:15:42;;;;;;;7.82;3.95;;;19.00;99.00;;;;;;5093000;28;20537;-81
2023/09/01 10:18:09;;;;;;;8.18;4.38;;;19.00;99.00;;;;;;5092629;28;20030;-80
2023/09/01 10:20:43;;;;;;;7.25;3.75;;;19.00;99.10;;;;;;5094100;28;20036;-83
2023/09/01 10:23:10;;;;;;;7.68;3.50;;;19.10;99.00;;;;;;5094150;28;20116;-82
2023/09/01 10:25:36;;;;;;;8.57;4.70;;;19.10;99.10;;;;;;5094815;28;20054;-83
2023/09/01 10:28:11;;;;;;;9.25;5.00;;;19.10;99.20;;;;;;5092814;28;20081;-86
2023/09/01 10:30:41;;;;;;;6.05;4.18;;;19.10;99.30;;;;;;5094789;28;20030;-84
2023/09/01 10:33:09;;;;;;;6.70;4.18;;;19.00;99.40;;;;;;5092720;28;20028;-84
2023/09/01 10:35:51;;;;;;;4.35;2.90;;;19.00;99.70;;;;;;5093977;28;20107;-84
2023/09/01 10:38:18;;;;;;;8.45;3.67;;;19.00;99.80;;;;;;5094040;28;20089;-83
2023/09/01 10:40:47;;;;;;;7.10;3.00;;;19.00;99.90;;;;;;5094057;28;20051;-82
2023/09/01 10:43:33;;;;;;;3.83;2.67;;;19.00;99.90;;;;;;5095032;28;20047;-85
2023/09/01 10:46:14;;;;;;;7.38;3.53;;;19.00;99.90;;;;;;5092576;28;20032;-84
2023/09/01 10:48:59;;;;;;;8.27;5.22;;;19.00;99.90;;;;;;5094214;28;20024;-84
2023/09/01 10:51:29;;;;;;;4.68;3.15;;;19.00;99.90;;;;;;5093770;28;20032;-85
2023/09/01 10:54:02;;;;;;;5.97;3.45;;;19.00;99.90;;;;;;5094443;28;20145;-84
2023/09/01 10:56:29;;;;;;;6.90;3.63;;;19.00;99.90;;;;;;5094295;28;20048;-84
2023/09/01 10:58:56;;;;;;;6.53;2.92;;;19.10;99.90;;;;;;5094116;28;20194;-85
2023/09/01 11:01:25;;;;;;;6.68;4.55;;;19.00;99.90;;;;;;5076152;28;20506;-86
2023/09/01 11:03:52;;;;;;;6.72;4.95;;;19.10;99.90;;;;;;5093274;28;20039;-85
2023/09/01 11:06:17;;;;;;;5.80;3.72;;;19.00;99.90;;;;;;5094369;28;20035;-85
2023/09/01 11:08:59;;;;;;;5.25;2.83;;;19.00;99.90;;;;;;5092940;28;20461;-83
2023/09/01 11:11:26;;;;;;;3.28;2.00;;;19.00;99.90;;;;;;5093684;28;20031;-83
2023/09/01 11:13:58;;;;;;;6.38;3.42;;;19.10;99.90;;;;;;5093460;28;20032;-84
2023/09/01 11:16:24;;;;;;;7.07;2.45;;;19.20;99.90;;;;;;5097831;28;20032;-87
2023/09/01 11:19:01;;;;;;;5.47;3.28;;;19.20;99.90;;;;;;5095111;28;20038;-86
2023/09/01 11:21:27;;;;;;;4.93;2.00;;;19.30;99.90;;;;;;5095863;28;20032;-87
2023/09/01 11:24:03;;;;;;;5.68;3.38;;;19.40;99.90;;;;;;5094773;28;20034;-86
2023/09/01 11:26:29;;;;;;;3.40;2.28;;;19.50;99.90;;;;;;5093563;28;20028;-87
2023/09/01 11:28:55;;;;;;;4.18;2.25;;;19.50;99.90;;;;;;5096132;28;20074;-87
2023/09/01 11:31:21;;;;;;;4.40;2.08;;;19.50;99.90;;;;;;5094714;28;20115;-86
2023/09/01 11:33:52;;;;;;;3.47;2.38;;;19.60;99.90;;;;;;5096077;28;20043;-86
2023/09/01 11:36:18;;;;;;;3.08;1.55;;;19.50;99.90;;;;;;5098370;28;20043;-86
2023/09/01 11:38:44;;;;;;;4.40;1.85;;;19.60;99.90;;;;;;5083147;28;20028;-86
2023/09/01 11:41:18;;;;;;;2.00;1.70;;;19.60;99.90;;;;;;5098855;28;20055;-87
2023/09/01 11:43:44;;;;;;;2.03;0.82;;;19.70;99.80;;;;;;5099842;28;20032;-86
2023/09/01 11:46:10;;;;;;;1.63;1.20;;;19.70;99.70;;;;;;5097233;28;20112;-87
2023/09/01 11:48:36;;;;;;;2.03;1.20;;;19.80;99.60;;;;;;5097310;28;20064;-86
2023/09/01 11:51:04;;;;;;;5.30;2.40;;;19.90;99.50;;;;;;5097484;28;20528;-86
2023/09/01 11:53:34;;;;;;;4.85;2.55;;;19.90;99.50;;;;;;5098803;28;20036;-86
2023/09/01 11:56:15;;;;;;;3.58;1.92;;;19.90;99.40;;;;;;5098872;28;20024;-86
2023/09/01 11:58:41;;;;;;;2.35;1.27;;;19.90;99.50;;;;;;5100383;28;20020;-86
2023/09/01 12:01:11;;;;;;;3.40;2.22;;;19.90;99.50;;;;;;5101595;28;20047;-86
2023/09/01 12:03:37;;;;;;;7.10;4.32;;;20.00;99.40;;;;;;5083715;28;20028;-85
2023/09/01 12:06:25;;;;;;;7.03;4.78;;;20.00;99.30;;;;;;5099660;28;20043;-86
2023/09/01 12:09:12;;;;;;;6.47;5.28;;;19.90;99.30;;;;;;5096841;28;20028;-85
2023/09/01 12:12:00;;;;;;;3.60;2.45;;;19.90;99.30;;;;;;5098748;28;20028;-86
2023/09/01 12:14:31;;;;;;;4.13;3.72;;;20.00;99.20;;;;;;5097860;28;20025;-86
2023/09/01 12:16:58;;;;;;;6.20;3.00;;;20.00;99.10;;;;;;5097101;28;20035;-86
2023/09/01 12:19:28;;;;;;;4.05;3.45;;;20.00;99.10;;;;;;5079441;28;20066;-86
2023/09/01 12:22:05;;;;;;;7.32;5.72;;;20.10;99.20;;;;;;5098408;28;20032;-85
2023/09/01 12:24:31;;;;;;;2.30;2.10;;;20.10;99.20;;;;;;5097471;28;20358;-86
2023/09/01 12:26:57;;;;;;;6.18;3.70;;;20.20;99.20;;;;;;5096734;28;20040;-85
2023/09/01 12:29:22;;;;;;;5.47;4.00;;;20.20;99.10;;;;;;5080521;28;20357;-86
2023/09/01 12:31:48;;;;;;;5.88;4.45;;;20.20;99.00;;;;;;5080039;28;20388;-86
2023/09/01 12:34:14;;;;;;;4.35;3.95;;;20.20;99.20;;;;;;5097894;28;20448;-86
2023/09/01 12:36:39;;;;;;;3.20;1.92;;;20.20;99.10;;;;;;5097313;28;20114;-87
2023/09/01 12:39:05;;;;;;;4.20;2.38;;;20.30;99.00;;;;;;5096114;28;20456;-86
2023/09/01 12:41:31;;;;;;;3.97;2.67;;;20.30;98.90;;;;;;5097728;28;20139;-86
2023/09/01 12:43:56;;;;;;;2.00;1.70;;;20.40;98.90;;;;;;5078120;28;20039;-86
2023/09/01 12:46:22;;;;;;;5.75;4.40;;;20.50;99.00;;;;;;5096775;28;20028;-86
2023/09/01 12:48:48;;;;;;;5.05;3.78;;;20.60;98.60;;;;;;5078955;28;20389;-87
2023/09/01 12:51:13;;;;;;;4.20;3.33;;;20.60;98.50;;;;;;5078893;28;20032;-86